createdAt,value
2023-12-29T00:00:00.549Z,91.0
2023-12-29T00:15:00.503Z,91.5
2023-12-29T00:30:00.533Z,91.5
2023-12-29T00:45:00.512Z,91.5
2023-12-29T01:00:00.604Z,91.0
2023-12-29T01:15:00.517Z,91.5
2023-12-29T01:30:00.482Z,91.5
2023-12-29T01:45:00.500Z,90.0
2023-12-29T02:00:00.669Z,90.5
2023-12-29T02:15:00.538Z,91.0
2023-12-29T02:30:00.447Z,90.0
2023-12-29T02:45:00.448Z,90.0
2023-12-29T03:00:00.656Z,91.0
2023-12-29T03:15:00.596Z,90.0
2023-12-29T03:30:00.957Z,90.0
2023-12-29T03:45:00.646Z,90.0
2023-12-29T04:00:00.473Z,90.5
2023-12-29T04:15:00.441Z,89.5
2023-12-29T04:30:00.519Z,89.0
2023-12-29T04:45:00.596Z,90.0
2023-12-29T05:00:00.642Z,89.0
2023-12-29T05:15:00.488Z,89.5
2023-12-29T05:30:00.477Z,90.0
2023-12-29T05:45:00.565Z,89.0
2023-12-29T06:00:00.563Z,90.0
2023-12-29T06:15:00.476Z,88.0
2023-12-29T06:30:00.483Z,89.0
2023-12-29T06:45:00.471Z,90.5
2023-12-29T07:00:00.631Z,88.5
2023-12-29T07:15:00.495Z,89.0
2023-12-29T07:30:00.491Z,89.0
2023-12-29T07:45:00.522Z,88.5
2023-12-29T08:00:00.740Z,89.0
2023-12-29T08:15:00.554Z,88.5
2023-12-29T08:30:00.505Z,89.0
2023-12-29T08:45:00.715Z,87.5
2023-12-29T09:00:00.795Z,88.5
2023-12-29T09:15:00.783Z,84.5
2023-12-29T09:30:00.675Z,82.0
2023-12-29T09:45:00.712Z,79.5
2023-12-29T10:00:00.823Z,81.5
2023-12-29T10:15:00.775Z,77.0
2023-12-29T10:30:00.681Z,74.5
2023-12-29T10:45:00.689Z,73.5
2023-12-29T11:00:00.958Z,71.0
2023-12-29T11:15:00.722Z,72.0
2023-12-29T11:30:00.676Z,70.5
2023-12-29T11:45:00.683Z,72.0
2023-12-29T12:00:00.777Z,71.5
2023-12-29T12:15:00.737Z,66.5
2023-12-29T12:30:00.859Z,70.0
2023-12-29T12:45:00.734Z,72.5
2023-12-29T13:00:01.236Z,72.0
2023-12-29T13:15:00.729Z,74.0
2023-12-29T13:30:00.688Z,72.5
2023-12-29T13:45:00.729Z,70.5
2023-12-29T14:00:00.708Z,70.0
2023-12-29T14:15:00.765Z,72.5
2023-12-29T14:30:03.342Z,74.0
2023-12-29T14:45:00.697Z,77.0
2023-12-29T15:00:00.674Z,78.5
2023-12-29T15:15:00.723Z,80.5
2023-12-29T15:30:00.722Z,79.0
2023-12-29T15:45:00.684Z,81.0
2023-12-29T16:00:00.759Z,81.5
2023-12-29T16:15:00.766Z,81.5
2023-12-29T16:30:00.684Z,82.5
2023-12-29T16:45:00.731Z,82.5
2023-12-29T17:00:00.679Z,84.0
2023-12-29T17:15:00.793Z,83.5
2023-12-29T17:30:00.974Z,85.5
2023-12-29T17:45:00.670Z,84.5
2023-12-29T18:00:00.732Z,85.5
2023-12-29T18:15:01.328Z,87.0
2023-12-29T18:30:00.634Z,85.0
2023-12-29T18:45:00.734Z,86.5
2023-12-29T19:00:00.715Z,86.5
2023-12-29T19:15:00.728Z,86.5
2023-12-29T19:30:00.799Z,87.0
2023-12-29T19:45:14.089Z,87.5
2023-12-29T20:00:00.719Z,88.0
2023-12-29T20:15:00.714Z,87.5
2023-12-29T20:30:00.673Z,87.5
2023-12-29T20:45:00.791Z,88.5
2023-12-29T21:00:00.738Z,89.0
2023-12-29T21:15:00.714Z,88.5
2023-12-29T21:30:00.702Z,88.5
2023-12-29T21:45:00.703Z,89.0
2023-12-29T22:00:00.808Z,88.5
2023-12-29T22:15:00.675Z,88.5
2023-12-29T22:30:00.801Z,89.5
2023-12-29T22:45:00.799Z,89.5
2023-12-29T23:00:00.726Z,89.5
2023-12-29T23:15:00.780Z,89.5
2023-12-29T23:30:00.688Z,90.5
2023-12-29T23:45:00.723Z,89.5
